createdAt,value
2018-06-17T00:00:17.696Z,54.69
2018-06-17T00:02:46.498Z,54.92
2018-06-17T00:05:15.287Z,55.30
2018-06-17T00:07:44.288Z,54.86
2018-06-17T00:10:13.078Z,55.39
2018-06-17T00:12:41.857Z,56.88
2018-06-17T00:15:10.677Z,55.42
2018-06-17T00:17:39.455Z,55.95
2018-06-17T00:20:08.237Z,56.48
2018-06-17T00:22:37.045Z,56.94
2018-06-17T00:25:05.843Z,56.91
2018-06-17T00:27:34.623Z,56.49
2018-06-17T00:30:03.469Z,57.25
2018-06-17T00:32:32.261Z,57.66
2018-06-17T00:35:01.047Z,56.43
2018-06-17T00:37:29.956Z,57.06
2018-06-17T00:39:58.745Z,56.15
2018-06-17T00:42:27.525Z,57.30
2018-06-17T00:44:56.338Z,56.93
2018-06-17T00:47:25.121Z,58.34
2018-06-17T00:49:53.950Z,58.99
2018-06-17T00:52:22.730Z,57.23
2018-06-17T00:54:51.506Z,58.58
2018-06-17T00:57:31.326Z,57.12
2018-06-17T01:00:00.076Z,56.81
2018-06-17T01:02:28.844Z,58.42
2018-06-17T01:04:57.649Z,60.84
2018-06-17T01:07:26.461Z,58.15
2018-06-17T01:09:55.273Z,57.57
2018-06-17T01:12:24.145Z,57.13
2018-06-17T01:14:52.932Z,58.63
2018-06-17T01:17:21.721Z,59.58
2018-06-17T01:19:50.541Z,58.30
2018-06-17T01:22:19.353Z,58.44
2018-06-17T01:24:48.135Z,58.07
2018-06-17T01:27:16.937Z,57.66
2018-06-17T01:29:45.709Z,57.93
2018-06-17T01:32:14.478Z,60.22
2018-06-17T01:34:43.236Z,60.41
2018-06-17T01:37:11.997Z,60.91
2018-06-17T01:39:40.878Z,60.79
2018-06-17T01:42:09.657Z,59.05
2018-06-17T01:44:38.461Z,61.29
2018-06-17T01:47:07.213Z,62.43
2018-06-17T01:49:36.002Z,60.84
2018-06-17T01:52:04.757Z,60.99
2018-06-17T01:54:33.526Z,59.95
2018-06-17T01:57:02.317Z,59.32
2018-06-17T01:59:31.074Z,59.48
2018-06-17T02:01:59.841Z,60.90
2018-06-17T02:04:33.605Z,62.47
2018-06-17T02:07:07.534Z,62.51
2018-06-17T02:09:41.429Z,60.02
2018-06-17T02:12:15.471Z,60.01
2018-06-17T02:15:00.532Z,59.53
2018-06-17T02:17:29.557Z,59.48
2018-06-17T02:19:58.322Z,59.59
2018-06-17T02:22:27.126Z,61.66
2018-06-17T02:24:55.909Z,60.83
2018-06-17T02:27:24.676Z,60.02
2018-06-17T02:29:53.451Z,62.01
2018-06-17T02:32:22.215Z,63.05
2018-06-17T02:34:50.973Z,62.27
2018-06-17T02:37:19.742Z,61.56
2018-06-17T02:39:48.505Z,61.99
2018-06-17T02:42:17.353Z,62.07
2018-06-17T02:44:49.530Z,62.17
2018-06-17T02:47:23.498Z,62.01
2018-06-17T02:49:52.266Z,61.60
2018-06-17T02:52:26.110Z,61.75
2018-06-17T02:54:54.886Z,61.79
2018-06-17T02:57:23.632Z,62.05
2018-06-17T02:59:52.417Z,62.18
2018-06-17T03:02:21.170Z,62.14
2018-06-17T03:04:49.927Z,62.13
2018-06-17T03:07:18.714Z,62.11
2018-06-17T03:09:47.670Z,60.82
2018-06-17T03:12:16.439Z,61.62
2018-06-17T03:14:45.212Z,59.84
2018-06-17T03:17:14.022Z,60.47
2018-06-17T03:19:42.776Z,59.82
2018-06-17T03:22:11.530Z,60.75
2018-06-17T03:24:45.542Z,60.57
2018-06-17T03:27:19.561Z,60.78
2018-06-17T03:29:53.577Z,61.35
2018-06-17T03:32:27.520Z,61.95
2018-06-17T03:35:01.484Z,62.07
2018-06-17T03:37:30.283Z,61.95
2018-06-17T03:39:59.077Z,61.95
2018-06-17T03:42:27.866Z,61.96
2018-06-17T03:44:56.650Z,61.90
2018-06-17T03:47:25.404Z,61.19
2018-06-17T03:49:54.243Z,60.88
2018-06-17T03:52:23.045Z,60.75
2018-06-17T03:54:51.818Z,60.75
2018-06-17T03:57:20.650Z,60.42
2018-06-17T03:59:49.424Z,60.47
2018-06-17T04:02:19.198Z,60.16
2018-06-17T04:04:53.152Z,59.53
2018-06-17T04:07:21.906Z,59.42
2018-06-17T04:09:50.690Z,59.34
2018-06-17T04:12:19.505Z,60.06
2018-06-17T04:14:48.279Z,60.20
2018-06-17T04:17:17.054Z,60.08
2018-06-17T04:19:46.674Z,60.03
2018-06-17T04:22:15.461Z,58.92
2018-06-17T04:24:44.290Z,58.75
2018-06-17T04:27:13.119Z,58.83
2018-06-17T04:29:41.882Z,58.46
2018-06-17T04:32:10.650Z,58.14
2018-06-17T04:34:39.477Z,58.81
2018-06-17T04:37:08.271Z,57.87
2018-06-17T04:39:37.029Z,59.08
2018-06-17T04:42:05.885Z,59.98
2018-06-17T04:44:34.718Z,58.87
2018-06-17T04:47:03.564Z,59.73
2018-06-17T04:49:32.402Z,59.04
2018-06-17T04:52:01.200Z,59.43
2018-06-17T04:54:30.000Z,59.10
2018-06-17T04:56:58.813Z,60.01
2018-06-17T04:59:27.569Z,60.33
2018-06-17T05:01:56.383Z,60.63
2018-06-17T05:04:25.202Z,60.55
2018-06-17T05:06:54.018Z,60.96
2018-06-17T05:09:22.789Z,60.07
2018-06-17T05:11:51.625Z,60.45
2018-06-17T05:14:20.488Z,60.90
2018-06-17T05:16:49.256Z,61.31
2018-06-17T05:19:18.063Z,61.37
2018-06-17T05:21:46.902Z,61.40
2018-06-17T05:24:15.768Z,61.55
2018-06-17T05:26:44.549Z,60.29
2018-06-17T05:29:13.304Z,59.64
2018-06-17T05:31:42.089Z,59.89
2018-06-17T05:34:10.893Z,59.43
2018-06-17T05:36:39.720Z,59.24
2018-06-17T05:39:10.886Z,59.90
2018-06-17T05:41:39.657Z,59.05
2018-06-17T05:44:08.478Z,59.12
2018-06-17T05:46:37.705Z,58.91
2018-06-17T05:49:06.796Z,59.41
2018-06-17T05:51:35.733Z,59.36
2018-06-17T05:54:04.526Z,59.00
2018-06-17T05:56:33.333Z,59.15
2018-06-17T05:59:02.079Z,59.08
2018-06-17T06:01:30.832Z,59.40
2018-06-17T06:03:59.699Z,59.14
2018-06-17T06:06:28.493Z,59.51
2018-06-17T06:08:57.272Z,59.14
2018-06-17T06:11:26.076Z,58.82
2018-06-17T06:13:54.925Z,58.74
2018-06-17T06:16:23.754Z,58.59
2018-06-17T06:18:52.711Z,58.46
2018-06-17T06:21:22.118Z,58.67
2018-06-17T06:23:50.954Z,58.63
2018-06-17T06:26:19.771Z,58.39
2018-06-17T06:28:48.570Z,58.62
2018-06-17T06:31:17.407Z,58.52
2018-06-17T06:33:46.886Z,58.42
2018-06-17T06:36:15.646Z,58.52
2018-06-17T06:38:44.422Z,58.63
2018-06-17T06:41:13.253Z,58.32
2018-06-17T06:43:42.031Z,58.38
2018-06-17T06:46:10.807Z,58.34
2018-06-17T06:48:39.875Z,58.30
2018-06-17T06:51:08.823Z,58.29
2018-06-17T06:53:37.667Z,58.41
2018-06-17T06:56:07.086Z,59.30
2018-06-17T06:58:35.910Z,58.70
2018-06-17T07:01:04.757Z,58.66
2018-06-17T07:03:44.581Z,58.85
2018-06-17T07:06:24.432Z,58.67
2018-06-17T07:09:05.164Z,58.68
2018-06-17T07:11:34.142Z,58.64
2018-06-17T07:14:02.907Z,58.35
2018-06-17T07:16:42.728Z,58.64
2018-06-17T07:19:11.530Z,58.37
2018-06-17T07:21:40.330Z,58.33
2018-06-17T07:24:09.134Z,58.38
2018-06-17T07:26:49.829Z,58.40
2018-06-17T07:29:42.261Z,58.41
2018-06-17T07:32:11.041Z,58.23
2018-06-17T07:34:39.872Z,58.21
2018-06-17T07:37:08.798Z,58.00
2018-06-17T07:41:46.385Z,58.06
2018-06-17T07:44:15.248Z,58.04
2018-06-17T07:46:44.023Z,57.93
2018-06-17T07:49:40.435Z,57.81
2018-06-17T07:52:20.818Z,57.72
2018-06-17T07:54:49.858Z,57.64
2018-06-17T07:57:20.786Z,57.68
2018-06-17T07:59:49.557Z,57.59
2018-06-17T08:02:18.705Z,57.19
2018-06-17T08:04:47.560Z,57.78
2018-06-17T08:07:16.310Z,57.56
2018-06-17T08:09:45.175Z,57.82
2018-06-17T08:12:14.249Z,57.75
2018-06-17T08:14:43.128Z,57.42
2018-06-17T08:17:12.065Z,57.56
2018-06-17T08:19:41.463Z,57.11
2018-06-17T08:22:10.269Z,56.91
2018-06-17T08:24:39.163Z,57.14
2018-06-17T08:27:07.986Z,57.03
2018-06-17T08:29:36.762Z,56.88
2018-06-17T08:32:05.590Z,57.73
2018-06-17T08:34:34.400Z,56.82
2018-06-17T08:37:03.184Z,56.72
2018-06-17T08:39:31.986Z,56.68
2018-06-17T08:42:00.834Z,56.87
2018-06-17T08:44:29.614Z,57.16
2018-06-17T08:46:58.426Z,56.83
2018-06-17T08:49:27.220Z,56.59
2018-06-17T08:51:56.026Z,56.48
2018-06-17T08:54:24.798Z,56.41
2018-06-17T08:56:53.594Z,56.33
2018-06-17T08:59:22.396Z,56.81
2018-06-17T09:01:51.163Z,56.35
2018-06-17T09:04:19.976Z,56.34
2018-06-17T09:06:48.785Z,56.17
2018-06-17T09:09:17.601Z,56.32
2018-06-17T09:11:46.406Z,56.17
2018-06-17T09:14:15.226Z,56.20
2018-06-17T09:16:44.035Z,56.19
2018-06-17T09:19:12.941Z,56.04
2018-06-17T09:21:41.742Z,55.86
2018-06-17T09:24:10.536Z,55.96
2018-06-17T09:26:39.317Z,56.20
2018-06-17T09:29:08.138Z,55.79
2018-06-17T09:31:37.001Z,55.93
2018-06-17T09:34:05.969Z,55.69
2018-06-17T09:36:34.746Z,55.61
2018-06-17T09:39:04.382Z,55.42
2018-06-17T09:41:33.619Z,55.09
2018-06-17T09:44:02.479Z,55.18
2018-06-17T09:46:31.307Z,55.01
2018-06-17T09:49:00.130Z,55.18
2018-06-17T09:51:28.922Z,55.26
2018-06-17T09:53:57.904Z,55.16
2018-06-17T09:56:26.762Z,55.34
2018-06-17T09:58:55.555Z,55.74
2018-06-17T10:01:24.339Z,55.38
2018-06-17T10:03:53.157Z,55.35
2018-06-17T10:06:21.941Z,55.71
2018-06-17T10:08:50.738Z,56.44
2018-06-17T10:11:19.534Z,57.04
2018-06-17T10:13:48.306Z,56.96
2018-06-17T10:16:17.221Z,56.67
2018-06-17T10:18:46.038Z,56.44
2018-06-17T10:21:14.875Z,55.93
2018-06-17T10:23:43.813Z,56.10
2018-06-17T10:26:12.606Z,56.09
2018-06-17T10:28:41.435Z,55.96
2018-06-17T10:31:10.263Z,56.20
2018-06-17T10:33:39.093Z,56.63
2018-06-17T10:36:07.917Z,56.14
2018-06-17T10:38:36.745Z,55.81
2018-06-17T10:41:05.566Z,55.83
2018-06-17T10:43:34.441Z,55.57
2018-06-17T10:46:03.240Z,56.97
2018-06-17T10:48:32.009Z,55.87
2018-06-17T10:51:00.791Z,56.19
2018-06-17T10:53:29.597Z,56.36
2018-06-17T10:55:58.475Z,55.81
2018-06-17T10:58:27.181Z,55.86
2018-06-17T11:00:55.949Z,56.11
2018-06-17T11:03:24.746Z,56.02
2018-06-17T11:05:53.559Z,55.93
2018-06-17T11:08:22.361Z,56.06
2018-06-17T11:10:51.145Z,55.99
2018-06-17T11:13:19.978Z,55.73
2018-06-17T11:15:48.773Z,55.82
2018-06-17T11:18:17.569Z,55.60
2018-06-17T11:20:46.369Z,55.16
2018-06-17T11:23:15.233Z,54.96
2018-06-17T11:25:44.010Z,55.05
2018-06-17T11:28:12.821Z,54.73
2018-06-17T11:30:41.602Z,54.64
2018-06-17T11:33:10.405Z,54.85
2018-06-17T11:35:39.225Z,54.61
2018-06-17T11:38:08.030Z,55.25
2018-06-17T11:40:36.821Z,55.10
2018-06-17T11:43:05.593Z,54.77
2018-06-17T11:45:34.375Z,55.04
2018-06-17T11:48:03.142Z,55.16
2018-06-17T11:50:31.906Z,55.23
2018-06-17T11:53:00.937Z,54.79
2018-06-17T11:55:29.714Z,54.58
2018-06-17T11:57:58.499Z,54.61
2018-06-17T12:00:27.283Z,54.22
2018-06-17T12:02:56.067Z,53.83
2018-06-17T12:05:24.914Z,53.91
2018-06-17T12:07:53.726Z,53.53
2018-06-17T12:10:22.526Z,52.88
2018-06-17T12:12:51.278Z,53.31
2018-06-17T12:15:20.097Z,53.13
2018-06-17T12:17:48.922Z,53.02
2018-06-17T12:20:17.671Z,52.88
2018-06-17T12:22:46.473Z,53.10
2018-06-17T12:25:15.253Z,53.31
2018-06-17T12:27:44.007Z,54.14
2018-06-17T12:30:12.781Z,54.81
2018-06-17T12:32:41.551Z,54.81
2018-06-17T12:35:10.372Z,54.93
2018-06-17T12:37:39.174Z,55.92
2018-06-17T12:40:07.961Z,55.59
2018-06-17T12:42:36.738Z,55.00
2018-06-17T12:45:05.647Z,55.35
2018-06-17T12:47:34.455Z,55.83
2018-06-17T12:50:03.338Z,55.26
2018-06-17T12:52:32.129Z,55.82
2018-06-17T12:55:00.929Z,55.10
2018-06-17T12:57:29.717Z,54.74
2018-06-17T12:59:58.496Z,54.75
2018-06-17T13:02:27.271Z,55.28
2018-06-17T13:04:56.024Z,54.84
2018-06-17T13:07:24.813Z,54.80
2018-06-17T13:09:53.577Z,55.15
2018-06-17T13:12:22.345Z,55.02
2018-06-17T13:14:51.162Z,54.79
2018-06-17T13:17:20.035Z,54.68
2018-06-17T13:19:48.821Z,54.65
2018-06-17T13:22:17.660Z,54.31
2018-06-17T13:24:46.458Z,54.61
2018-06-17T13:27:15.275Z,54.58
2018-06-17T13:29:44.096Z,54.54
2018-06-17T13:32:12.949Z,54.71
2018-06-17T13:34:41.769Z,54.76
2018-06-17T13:37:10.643Z,54.83
2018-06-17T13:39:39.432Z,55.67
2018-06-17T13:42:08.207Z,55.27
2018-06-17T13:44:37.509Z,55.33
2018-06-17T13:47:06.570Z,55.62
2018-06-17T13:49:35.801Z,56.29
2018-06-17T13:52:04.610Z,56.70
2018-06-17T13:54:33.413Z,55.45
2018-06-17T13:57:02.171Z,55.33
2018-06-17T13:59:31.006Z,56.42
2018-06-17T14:01:59.785Z,56.24
2018-06-17T14:04:28.601Z,56.47
2018-06-17T14:06:57.408Z,57.97
2018-06-17T14:09:26.174Z,56.98
2018-06-17T14:11:55.070Z,57.50
2018-06-17T14:14:23.850Z,57.51
2018-06-17T14:16:52.753Z,57.45
2018-06-17T14:19:21.580Z,57.67
2018-06-17T14:21:50.420Z,58.63
2018-06-17T14:24:19.254Z,57.87
2018-06-17T14:26:48.030Z,57.64
2018-06-17T14:29:16.812Z,58.06
2018-06-17T14:31:45.641Z,57.46
2018-06-17T14:34:14.432Z,57.24
2018-06-17T14:36:43.273Z,57.28
2018-06-17T14:39:13.121Z,58.37
2018-06-17T14:41:41.958Z,57.67
2018-06-17T14:44:16.009Z,57.25
2018-06-17T14:47:49.636Z,58.13
2018-06-17T14:50:23.666Z,58.92
2018-06-17T14:52:57.510Z,60.39
2018-06-17T14:55:26.269Z,59.90
2018-06-17T14:57:55.087Z,60.53
2018-06-17T15:00:23.891Z,60.34
2018-06-17T15:02:52.765Z,59.68
2018-06-17T15:05:21.575Z,59.75
2018-06-17T15:07:50.374Z,59.36
2018-06-17T15:10:19.245Z,58.67
2018-06-17T15:12:48.079Z,59.19
2018-06-17T15:15:16.958Z,58.45
2018-06-17T15:17:45.829Z,58.16
2018-06-17T15:20:14.617Z,58.42
2018-06-17T15:22:43.410Z,58.37
2018-06-17T15:25:12.195Z,58.57
2018-06-17T15:27:41.028Z,58.14
2018-06-17T15:30:09.923Z,58.15
2018-06-17T15:32:43.939Z,58.94
2018-06-17T15:35:17.897Z,58.90
2018-06-17T15:37:51.828Z,57.97
2018-06-17T15:40:24.851Z,58.20
2018-06-17T15:42:53.707Z,57.83
2018-06-17T15:45:22.672Z,57.77
2018-06-17T15:47:51.778Z,57.89
2018-06-17T15:50:21.730Z,57.79
2018-06-17T15:52:50.798Z,57.84
2018-06-17T15:55:19.870Z,57.72
2018-06-17T15:57:49.165Z,57.21
2018-06-17T16:00:18.129Z,57.66
2018-06-17T16:02:46.966Z,57.85
2018-06-17T16:05:16.465Z,57.99
2018-06-17T16:07:45.652Z,57.81
2018-06-17T16:10:14.448Z,58.13
2018-06-17T16:12:48.397Z,58.21
2018-06-17T16:15:22.292Z,58.04
2018-06-17T16:17:56.290Z,57.83
2018-06-17T16:20:30.244Z,57.32
2018-06-17T16:22:59.301Z,56.91
2018-06-17T16:25:28.117Z,56.88
2018-06-17T16:27:56.894Z,56.62
2018-06-17T16:30:25.750Z,56.48
2018-06-17T16:32:55.482Z,56.60
2018-06-17T16:35:24.376Z,56.62
2018-06-17T16:37:53.246Z,56.64
2018-06-17T16:40:22.038Z,56.31
2018-06-17T16:42:50.833Z,55.99
2018-06-17T16:45:19.765Z,55.82
2018-06-17T16:47:48.589Z,56.46
2018-06-17T16:50:17.410Z,56.26
2018-06-17T16:52:51.464Z,56.03
2018-06-17T16:55:25.537Z,55.95
2018-06-17T16:57:59.473Z,55.84
2018-06-17T17:00:28.506Z,56.19
2018-06-17T17:02:57.363Z,56.84
2018-06-17T17:05:29.221Z,57.10
2018-06-17T17:07:58.027Z,56.95
2018-06-17T17:10:26.822Z,57.33
2018-06-17T17:12:55.638Z,58.61
2018-06-17T17:15:24.427Z,57.97
2018-06-17T17:17:53.190Z,58.11
2018-06-17T17:20:22.016Z,58.56
2018-06-17T17:22:50.826Z,58.33
2018-06-17T17:25:19.601Z,58.23
2018-06-17T17:27:48.452Z,60.71
2018-06-17T17:30:17.256Z,60.13
2018-06-17T17:33:48.967Z,60.18
2018-06-17T17:36:22.821Z,60.23
2018-06-17T17:38:57.046Z,59.91
2018-06-17T17:41:26.198Z,59.69
2018-06-17T17:43:54.992Z,60.31
2018-06-17T17:46:28.834Z,60.30
2018-06-17T17:48:57.593Z,59.55
2018-06-17T17:51:26.559Z,59.61
2018-06-17T17:53:55.382Z,59.73
2018-06-17T17:56:24.692Z,60.19
2018-06-17T17:58:53.874Z,59.92
2018-06-17T18:01:22.968Z,59.65
2018-06-17T18:03:51.828Z,60.69
2018-06-17T18:06:20.963Z,60.01
2018-06-17T18:08:49.854Z,60.01
2018-06-17T18:11:18.656Z,62.06
2018-06-17T18:13:48.225Z,61.73
2018-06-17T18:16:17.815Z,62.19
2018-06-17T18:18:46.830Z,62.64
2018-06-17T18:21:16.175Z,61.28
2018-06-17T18:23:45.391Z,62.43
2018-06-17T18:26:19.711Z,62.41
2018-06-17T18:28:53.846Z,63.25
2018-06-17T18:31:22.631Z,65.10
2018-06-17T18:33:56.578Z,66.06
2018-06-17T18:36:25.391Z,63.75
2018-06-17T18:38:54.967Z,63.33
2018-06-17T18:41:23.772Z,62.79
2018-06-17T18:43:52.574Z,63.14
2018-06-17T18:46:21.385Z,62.89
2018-06-17T18:48:50.185Z,63.00
2018-06-17T18:51:18.978Z,62.98
2018-06-17T18:53:47.758Z,64.45
2018-06-17T18:56:16.520Z,66.68
2018-06-17T18:58:45.309Z,65.31
2018-06-17T19:01:14.094Z,64.31
2018-06-17T19:03:42.915Z,65.37
2018-06-17T19:06:11.693Z,66.05
2018-06-17T19:08:45.708Z,65.91
2018-06-17T19:11:19.593Z,65.30
2018-06-17T19:13:53.698Z,64.80
2018-06-17T19:16:27.649Z,63.85
2018-06-17T19:18:56.628Z,64.83
2018-06-17T19:21:25.405Z,63.88
2018-06-17T19:23:54.162Z,64.54
2018-06-17T19:26:22.993Z,66.11
2018-06-17T19:28:51.795Z,67.53
2018-06-17T19:31:20.593Z,66.20
2018-06-17T19:33:49.499Z,65.32
2018-06-17T19:36:18.281Z,64.77
2018-06-17T19:38:47.087Z,65.88
2018-06-17T19:41:16.181Z,65.80
2018-06-17T19:43:44.974Z,65.85
2018-06-17T19:46:13.760Z,66.17
2018-06-17T19:48:42.789Z,66.99
2018-06-17T19:51:16.786Z,65.13
2018-06-17T19:53:50.770Z,65.68
2018-06-17T19:56:24.733Z,65.12
2018-06-17T19:58:58.667Z,65.70
2018-06-17T20:01:27.462Z,68.18
2018-06-17T20:03:56.246Z,69.20
2018-06-17T20:06:25.364Z,67.95
2018-06-17T20:08:53.961Z,67.06
2018-06-17T20:11:22.755Z,67.41
2018-06-17T20:13:51.558Z,66.30
2018-06-17T20:16:20.368Z,66.02
2018-06-17T20:18:49.178Z,66.28
2018-06-17T20:21:17.970Z,65.36
2018-06-17T20:23:46.750Z,65.19
2018-06-17T20:26:15.577Z,64.92
2018-06-17T20:28:44.374Z,64.92
2018-06-17T20:31:13.281Z,67.34
2018-06-17T20:33:47.298Z,65.70
2018-06-17T20:36:21.185Z,65.39
2018-06-17T20:38:55.227Z,66.81
2018-06-17T20:41:29.186Z,65.72
2018-06-17T20:43:58.078Z,67.09
2018-06-17T20:46:26.858Z,65.65
2018-06-17T20:48:55.691Z,66.68
2018-06-17T20:51:24.474Z,68.04
2018-06-17T20:53:53.314Z,66.29
2018-06-17T20:56:22.077Z,66.11
2018-06-17T20:58:50.895Z,65.55
2018-06-17T21:01:19.718Z,65.72
2018-06-17T21:03:48.517Z,66.93
2018-06-17T21:06:17.331Z,65.79
2018-06-17T21:08:46.096Z,66.33
2018-06-17T21:11:14.862Z,67.70
2018-06-17T21:13:43.672Z,66.91
2018-06-17T21:16:12.458Z,68.79
2018-06-17T21:18:46.397Z,67.00
2018-06-17T21:21:20.357Z,66.11
2018-06-17T21:23:54.309Z,65.98
2018-06-17T21:26:28.265Z,66.66
2018-06-17T21:28:57.041Z,67.82
2018-06-17T21:31:25.831Z,66.86
2018-06-17T21:33:54.653Z,67.48
2018-06-17T21:36:23.423Z,65.82
2018-06-17T21:38:52.195Z,66.31
2018-06-17T21:41:20.981Z,66.59
2018-06-17T21:43:49.777Z,66.36
2018-06-17T21:46:18.542Z,67.66
2018-06-17T21:48:47.346Z,67.28
2018-06-17T21:51:16.177Z,66.38
2018-06-17T21:53:44.977Z,67.22
2018-06-17T21:56:13.761Z,67.58
2018-06-17T21:58:48.962Z,67.38
2018-06-17T22:01:19.265Z,68.15
2018-06-17T22:03:48.077Z,66.58
2018-06-17T22:06:16.840Z,66.71
2018-06-17T22:08:50.747Z,66.63
2018-06-17T22:11:24.697Z,67.14
2018-06-17T22:13:58.512Z,67.12
2018-06-17T22:16:32.475Z,67.00
2018-06-17T22:19:01.314Z,67.21
2018-06-17T22:21:30.097Z,67.08
2018-06-17T22:23:58.925Z,66.85
2018-06-17T22:26:27.723Z,67.40
2018-06-17T22:28:56.647Z,68.19
2018-06-17T22:31:25.450Z,67.35
2018-06-17T22:33:54.623Z,68.14
2018-06-17T22:36:23.405Z,69.81
2018-06-17T22:38:52.235Z,69.67
2018-06-17T22:41:21.090Z,67.48
2018-06-17T22:43:49.871Z,67.58
2018-06-17T22:46:18.652Z,68.65
2018-06-17T22:48:47.418Z,69.42
2018-06-17T22:51:16.194Z,69.42
2018-06-17T22:53:55.947Z,70.25
2018-06-17T22:56:29.841Z,69.85
2018-06-17T22:59:03.832Z,70.54
2018-06-17T23:01:37.774Z,69.35
2018-06-17T23:04:11.720Z,69.68
2018-06-17T23:06:45.567Z,69.01
2018-06-17T23:09:19.655Z,70.57
2018-06-17T23:11:48.466Z,69.73
2018-06-17T23:14:17.265Z,70.30
2018-06-17T23:16:46.065Z,70.17
2018-06-17T23:19:14.842Z,70.89
2018-06-17T23:21:43.651Z,69.72
2018-06-17T23:24:12.435Z,70.71
2018-06-17T23:26:41.221Z,70.97
2018-06-17T23:29:10.018Z,70.08
2018-06-17T23:31:38.874Z,71.61
2018-06-17T23:34:07.669Z,70.99
2018-06-17T23:36:36.554Z,70.60
2018-06-17T23:39:07.990Z,71.49
2018-06-17T23:41:36.795Z,71.00
2018-06-17T23:44:05.686Z,71.61
2018-06-17T23:46:39.623Z,71.04
2018-06-17T23:49:13.490Z,71.81
2018-06-17T23:51:47.679Z,70.90
2018-06-17T23:54:21.550Z,71.57
2018-06-17T23:56:50.374Z,71.53
2018-06-17T23:59:19.174Z,70.47
